Time;durP1;ratioP1;P1;durP2;ratioP2;P2;SDS_P1;SDS_P2;PMS_P1;PMS_P2;Temp;Humidity;BMP_temperature;BMP_pressure;BME280_temperature;BME280_humidity;BME280_pressure;Samples;Min_cycle;Max_cycle;Signal;HPM_P1;HPM_P2
2023/04/01 00:02:07;;;;;;;0.20;0.20;;;;;;;19.21;47.13;98974.00;5117205;27;20499;-45
2023/04/01 00:04:33;;;;;;;0.20;0.20;;;;;;;19.21;47.22;98973.16;5098103;28;20085;-45
2023/04/01 00:07:00;;;;;;;0.20;0.20;;;;;;;19.20;47.21;98972.34;5116778;28;20043;-47
2023/04/01 00:09:25;;;;;;;0.22;0.22;;;;;;;19.20;47.31;98977.88;5098711;28;20077;-45
2023/04/01 00:11:55;;;;;;;0.20;0.20;;;;;;;19.20;47.04;98975.09;5099106;27;20055;-44
2023/04/01 00:14:20;;;;;;;0.20;0.20;;;;;;;19.20;47.14;98974.28;5136816;27;20047;-46
2023/04/01 00:16:46;;;;;;;0.20;0.20;;;;;;;19.20;47.37;98972.34;5137469;27;20073;-45
2023/04/01 00:19:13;;;;;;;0.20;0.20;;;;;;;19.19;46.99;98967.97;5137581;27;20046;-44
2023/04/01 00:21:40;;;;;;;0.20;0.20;;;;;;;19.19;47.30;98970.72;5118948;27;20042;-45
2023/04/01 00:24:05;;;;;;;0.20;0.20;;;;;;;19.20;46.98;98975.09;5136926;27;20467;-46
2023/04/01 00:26:31;;;;;;;0.20;0.20;;;;;;;19.20;46.92;98977.06;5136766;27;20211;-46
2023/04/01 00:28:58;;;;;;;0.22;0.22;;;;;;;19.19;47.00;98973.50;5137207;27;20051;-45
2023/04/01 00:31:24;;;;;;;0.20;0.20;;;;;;;19.20;47.21;98975.09;5137318;27;20043;-45
2023/04/01 00:33:51;;;;;;;0.20;0.20;;;;;;;19.19;47.25;98973.50;5137378;27;20035;-44
2023/04/01 00:36:19;;;;;;;0.20;0.20;;;;;;;19.20;47.29;98971.53;5137246;27;20087;-45
2023/04/01 00:38:45;;;;;;;;;;;;;;;19.20;46.89;98968.78;5102147;27;20390;-46
2023/04/01 00:41:14;;;;;;;0.30;0.30;;;;;;;19.18;47.06;98960.84;5116447;27;20067;-45
2023/04/01 00:43:40;;;;;;;;;;;;;;;19.18;47.21;98962.78;5098726;28;20490;-46
2023/04/01 00:46:06;;;;;;;0.20;0.20;;;;;;;19.18;47.26;98971.88;5115884;28;20294;-45
2023/04/01 00:48:35;;;;;;;0.22;0.22;;;;;;;19.18;46.95;98968.31;5103759;27;20113;-45
2023/04/01 00:51:20;;;;;;;0.20;0.20;;;;;;;19.18;46.90;98963.59;5100336;27;20043;-45
2023/04/01 00:53:50;;;;;;;0.20;0.20;;;;;;;19.19;47.08;98973.50;5118689;27;20227;-46
2023/04/01 00:56:17;;;;;;;0.20;0.20;;;;;;;19.19;46.96;98964.41;5118050;27;20073;-45
2023/04/01 00:58:46;;;;;;;0.20;0.20;;;;;;;19.19;47.15;98965.22;5117861;27;20519;-45
2023/04/01 01:01:12;;;;;;;0.20;0.20;;;;;;;19.18;47.01;98957.28;5135868;27;20530;-45
2023/04/01 01:03:38;;;;;;;0.20;0.20;;;;;;;19.17;47.06;98961.97;5136985;27;20060;-46
2023/04/01 01:06:10;;;;;;;0.25;0.25;;;;;;;19.17;46.87;98961.97;5136749;27;20437;-46
2023/04/01 01:09:16;;;;;;;0.25;0.25;;;;;;;19.18;46.80;98955.31;5136712;27;20049;-46
2023/04/01 01:11:48;;;;;;;0.20;0.20;;;;;;;19.17;46.90;98956.47;5109393;27;20053;-45
2023/04/01 01:14:37;;;;;;;0.20;0.20;;;;;;;19.18;47.07;98954.50;5112372;27;20458;-44
2023/04/01 01:17:19;;;;;;;0.20;0.20;;;;;;;19.18;47.17;98960.03;5141475;27;20081;-45
2023/04/01 01:22:52;;;;;;;0.20;0.20;;;;;;;19.17;47.05;98952.88;5174295;27;20120;-44
2023/04/01 01:25:44;;;;;;;0.20;0.20;;;;;;;19.18;47.16;98957.28;5152937;27;20085;-45
2023/04/01 01:28:40;;;;;;;0.20;0.20;;;;;;;19.16;47.09;98949.31;5138812;27;20094;-45
2023/04/01 01:31:21;;;;;;;0.20;0.20;;;;;;;19.16;46.90;98946.53;5137643;27;20913;-45
2023/04/01 01:34:18;;;;;;;0.22;0.22;;;;;;;19.17;47.17;98947.34;5134732;27;20173;-46
2023/04/01 01:36:49;;;;;;;0.20;0.20;;;;;;;19.16;46.82;98949.31;5139697;27;20054;-46
2023/04/01 01:39:15;;;;;;;0.20;0.20;;;;;;;19.17;47.22;98950.94;5153185;27;20046;-46
2023/04/01 01:41:42;;;;;;;0.20;0.20;;;;;;;19.17;46.84;98950.09;5152507;27;20451;-45
2023/04/01 01:44:10;;;;;;;0.20;0.20;;;;;;;19.16;47.04;98951.25;5133893;27;20092;-46
2023/04/01 01:46:38;;;;;;;0.20;0.20;;;;;;;19.17;47.19;98947.34;5134454;27;20046;-45
2023/04/01 01:49:05;;;;;;;0.20;0.20;;;;;;;19.17;46.89;98952.88;5161399;27;20379;-46
2023/04/01 01:51:30;;;;;;;0.20;0.20;;;;;;;19.16;46.90;98946.53;5149927;27;20074;-45
2023/04/01 01:53:56;;;;;;;0.20;0.20;;;;;;;19.16;46.89;98943.78;5132175;27;20397;-47
2023/04/01 01:56:24;;;;;;;0.30;0.30;;;;;;;19.16;47.04;98952.06;5132509;27;20417;-45
2023/04/01 01:58:52;;;;;;;0.20;0.20;;;;;;;19.16;47.24;98949.31;5131720;27;20395;-45
2023/04/01 02:01:23;;;;;;;0.20;0.20;;;;;;;19.16;46.88;98951.25;5131717;27;20074;-45
2023/04/01 02:03:50;;;;;;;0.20;0.20;;;;;;;19.16;47.04;98949.31;5131768;27;20051;-45
2023/04/01 02:06:19;;;;;;;0.20;0.20;;;;;;;19.16;46.88;98940.22;5132206;27;20092;-45
2023/04/01 02:08:51;;;;;;;0.20;0.20;;;;;;;19.16;46.86;98943.78;5132217;27;20075;-45
2023/04/01 02:11:19;;;;;;;0.20;0.20;;;;;;;19.15;46.95;98939.41;5131973;27;20051;-45
2023/04/01 02:13:52;;;;;;;0.30;0.30;;;;;;;19.16;47.03;98945.75;5113560;27;20092;-45
2023/04/01 02:16:22;;;;;;;0.30;0.30;;;;;;;19.16;46.85;98945.75;5132415;27;20103;-45
2023/04/01 02:18:50;;;;;;;0.20;0.20;;;;;;;19.15;47.10;98947.69;5132398;27;20103;-45
2023/04/01 02:21:18;;;;;;;0.30;0.30;;;;;;;19.16;47.01;98949.31;5141243;27;20043;-45
2023/04/01 02:23:45;;;;;;;0.20;0.20;;;;;;;19.16;47.17;98945.75;5134119;27;20097;-46
2023/04/01 02:26:11;;;;;;;0.30;0.30;;;;;;;19.15;46.83;98950.44;5152254;27;20043;-45
2023/04/01 02:28:38;;;;;;;0.20;0.20;;;;;;;19.15;47.01;98953.22;5150856;27;20046;-45
2023/04/01 02:31:04;;;;;;;0.30;0.30;;;;;;;19.15;47.19;98949.63;5116683;27;20114;-45
2023/04/01 02:33:30;;;;;;;0.25;0.25;;;;;;;19.15;46.81;98944.13;5123411;27;20514;-45
2023/04/01 02:35:56;;;;;;;0.20;0.20;;;;;;;19.14;46.85;98948.84;5120277;27;20046;-45
2023/04/01 02:38:22;;;;;;;0.20;0.20;;;;;;;19.15;47.07;98952.41;5139108;27;20502;-45
2023/04/01 02:40:50;;;;;;;0.20;0.20;;;;;;;19.15;46.88;98953.22;5138097;27;20380;-45
2023/04/01 02:43:16;;;;;;;0.20;0.20;;;;;;;19.15;47.06;98957.91;5138306;27;20058;-47
2023/04/01 02:45:42;;;;;;;0.20;0.20;;;;;;;19.15;47.03;98958.72;5097708;28;20487;-45
2023/04/01 02:48:08;;;;;;;0.20;0.20;;;;;;;19.15;46.88;98963.44;5118202;28;20130;-46
2023/04/01 02:50:34;;;;;;;0.20;0.20;;;;;;;19.14;47.04;98959.88;5121684;27;20611;-45
2023/04/01 02:53:02;;;;;;;0.20;0.20;;;;;;;19.14;46.91;98967.34;5136757;27;20070;-45
2023/04/01 02:55:28;;;;;;;0.20;0.20;;;;;;;19.14;47.12;98961.81;5138034;27;20084;-45
2023/04/01 02:57:53;;;;;;;0.20;0.20;;;;;;;19.14;46.85;98961.81;5138581;27;20047;-46
2023/04/01 03:00:19;;;;;;;0.20;0.20;;;;;;;19.13;46.79;98962.94;5138082;27;20061;-45
2023/04/01 03:02:45;;;;;;;0.20;0.20;;;;;;;19.14;46.95;98964.59;5138001;27;20487;-45
2023/04/01 03:05:11;;;;;;;0.20;0.20;;;;;;;19.12;46.87;98962.13;5138226;27;20043;-48
2023/04/01 03:07:36;;;;;;;0.20;0.20;;;;;;;19.13;47.25;98965.69;5138143;27;20526;-47
2023/04/01 03:10:02;;;;;;;0.20;0.20;;;;;;;19.13;47.12;98972.06;5138762;27;20051;-46
2023/04/01 03:12:28;;;;;;;0.30;0.30;;;;;;;19.13;47.10;98968.47;5138134;27;20061;-45
2023/04/01 03:14:53;;;;;;;0.20;0.20;;;;;;;19.14;46.92;98972.84;5138256;27;20468;-45
2023/04/01 03:17:19;;;;;;;0.30;0.30;;;;;;;19.14;46.87;98970.91;5138266;27;20051;-46
2023/04/01 03:19:45;;;;;;;0.20;0.20;;;;;;;19.14;47.01;98981.13;5138572;27;20114;-45
2023/04/01 03:22:11;;;;;;;0.20;0.20;;;;;;;19.13;46.85;98979.50;5120041;27;20431;-45
2023/04/01 03:24:36;;;;;;;0.20;0.20;;;;;;;19.13;47.01;98985.84;5117212;28;20051;-45
2023/04/01 03:27:02;;;;;;;0.20;0.20;;;;;;;19.14;46.87;98984.72;5117065;28;20100;-44
2023/04/01 03:29:28;;;;;;;0.30;0.30;;;;;;;19.13;47.05;98976.72;5137115;27;20126;-45
2023/04/01 03:31:53;;;;;;;0.20;0.20;;;;;;;19.13;46.82;98987.78;5136166;27;20099;-46
2023/04/01 03:34:19;;;;;;;0.30;0.30;;;;;;;19.13;46.70;98982.25;5116961;28;20171;-46
2023/04/01 03:36:45;;;;;;;0.30;0.30;;;;;;;19.13;46.82;98990.53;5116868;28;20058;-45
2023/04/01 03:39:11;;;;;;;0.30;0.30;;;;;;;19.13;46.91;98990.53;5116664;28;20047;-45
2023/04/01 03:41:38;;;;;;;0.20;0.20;;;;;;;19.12;46.77;98984.22;5116828;27;20457;-45
2023/04/01 03:44:03;;;;;;;0.20;0.20;;;;;;;19.12;47.25;98992.47;5115246;27;20389;-45
2023/04/01 03:46:29;;;;;;;0.30;0.30;;;;;;;19.12;47.02;98991.69;5134388;27;20043;-45
2023/04/01 03:48:55;;;;;;;0.20;0.20;;;;;;;19.12;47.03;98989.72;5137669;27;20424;-46
2023/04/01 03:51:20;;;;;;;0.30;0.30;;;;;;;19.11;47.11;98985.34;5127049;27;20051;-45
2023/04/01 03:53:46;;;;;;;0.20;0.20;;;;;;;19.13;46.91;98990.53;5116036;27;20099;-46
2023/04/01 03:56:12;;;;;;;0.20;0.20;;;;;;;19.11;46.98;98999.16;5097735;28;20051;-47
2023/04/01 03:58:38;;;;;;;0.20;0.20;;;;;;;19.12;46.92;98994.44;5116332;28;20119;-45
2023/04/01 04:01:14;;;;;;;0.30;0.30;;;;;;;19.11;46.93;98988.13;5116488;27;20104;-45
2023/04/01 04:03:40;;;;;;;0.20;0.20;;;;;;;19.11;46.80;98990.88;5097766;28;20067;-46
2023/04/01 04:06:05;;;;;;;0.20;0.20;;;;;;;19.11;46.84;99007.41;5116164;28;20083;-46
2023/04/01 04:08:31;;;;;;;0.30;0.30;;;;;;;19.12;46.92;98997.19;5115967;28;20054;-45
2023/04/01 04:10:57;;;;;;;0.20;0.20;;;;;;;19.12;46.71;98986.16;5116258;27;20050;-45
2023/04/01 04:13:22;;;;;;;0.20;0.20;;;;;;;19.12;46.84;98992.47;5116155;27;20074;-45
2023/04/01 04:15:48;;;;;;;0.20;0.20;;;;;;;19.11;47.02;98995.59;5116123;28;20448;-45
2023/04/01 04:18:14;;;;;;;0.20;0.20;;;;;;;19.11;46.86;99006.63;5116185;28;20495;-45
2023/04/01 04:20:50;;;;;;;0.20;0.20;;;;;;;19.11;47.13;98998.34;5120090;27;20055;-46
2023/04/01 04:23:17;;;;;;;0.20;0.20;;;;;;;19.11;46.81;99001.09;5136899;27;20053;-46
2023/04/01 04:26:01;;;;;;;0.20;0.20;;;;;;;19.10;46.98;99005.81;5136520;27;20081;-45
2023/04/01 04:28:27;;;;;;;0.20;0.20;;;;;;;19.10;46.80;99005.81;5118412;27;20080;-46
2023/04/01 04:30:53;;;;;;;0.20;0.20;;;;;;;19.09;46.87;99012.47;5136113;27;20078;-45
2023/04/01 04:33:20;;;;;;;0.20;0.20;;;;;;;19.10;47.15;99007.75;5135196;27;20119;-46
2023/04/01 04:35:46;;;;;;;0.20;0.20;;;;;;;19.10;47.06;99011.31;5135242;27;20487;-45
2023/04/01 04:38:11;;;;;;;0.20;0.20;;;;;;;19.11;46.88;99012.13;5136515;27;20548;-45
2023/04/01 04:40:38;;;;;;;0.20;0.20;;;;;;;19.09;47.11;99006.97;5132338;27;20047;-47
2023/04/01 04:43:04;;;;;;;0.20;0.20;;;;;;;19.10;46.87;99013.28;5116183;27;20075;-46
2023/04/01 04:45:30;;;;;;;0.20;0.20;;;;;;;19.10;46.92;99014.09;5115491;28;20073;-45
2023/04/01 04:47:56;;;;;;;0.20;0.20;;;;;;;19.10;46.85;99021.56;5130577;27;20468;-45
2023/04/01 04:50:22;;;;;;;0.20;0.20;;;;;;;19.09;47.12;99012.47;5134334;27;20672;-45
2023/04/01 04:52:48;;;;;;;0.20;0.20;;;;;;;19.11;47.15;99025.94;5097238;28;20495;-46
2023/04/01 04:55:15;;;;;;;0.30;0.30;;;;;;;19.10;46.99;99018.78;5115349;27;20131;-44
2023/04/01 04:57:40;;;;;;;0.20;0.20;;;;;;;19.09;47.04;99020.75;5115631;28;20483;-46
2023/04/01 05:00:07;;;;;;;0.30;0.30;;;;;;;19.09;47.25;99020.75;5115571;28;20058;-45
2023/04/01 05:02:33;;;;;;;0.20;0.20;;;;;;;19.10;47.02;99032.59;5097141;28;20070;-46
2023/04/01 05:04:59;;;;;;;0.20;0.20;;;;;;;19.09;47.11;99030.97;5097001;28;20090;-45
2023/04/01 05:07:25;;;;;;;0.20;0.20;;;;;;;19.09;46.74;99030.97;5114481;28;20578;-44
2023/04/01 05:09:50;;;;;;;0.20;0.20;;;;;;;19.10;47.17;99035.34;5115078;28;20050;-46
2023/04/01 05:12:16;;;;;;;0.20;0.20;;;;;;;19.09;46.79;99037.31;5118981;27;20103;-45
2023/04/01 05:14:42;;;;;;;0.20;0.20;;;;;;;19.09;46.87;99040.06;5136344;27;20042;-46
2023/04/01 05:17:10;;;;;;;0.20;0.20;;;;;;;19.10;47.20;99038.13;5136024;27;20482;-46
2023/04/01 05:19:35;;;;;;;0.30;0.30;;;;;;;19.09;47.09;99039.25;5103341;28;20200;-45
2023/04/01 05:22:01;;;;;;;0.20;0.20;;;;;;;19.09;47.16;99039.25;5130773;27;20051;-46
2023/04/01 05:24:27;;;;;;;0.30;0.30;;;;;;;19.08;46.82;99043.94;5117688;27;20071;-45
2023/04/01 05:26:53;;;;;;;0.30;0.30;;;;;;;19.10;46.87;99049.16;5117195;27;20039;-46
2023/04/01 05:29:21;;;;;;;0.20;0.20;;;;;;;19.08;47.03;99043.94;5135917;27;20129;-45
2023/04/01 05:31:46;;;;;;;0.20;0.20;;;;;;;19.08;47.10;99048.66;5135058;27;20072;-45
2023/04/01 05:34:13;;;;;;;0.20;0.20;;;;;;;19.08;47.05;99046.69;5135525;27;20047;-46
2023/04/01 05:36:38;;;;;;;0.20;0.20;;;;;;;19.08;47.12;99043.13;5136243;27;20043;-45
2023/04/01 05:39:04;;;;;;;0.20;0.20;;;;;;;19.08;47.18;99048.66;5135805;27;20119;-46
2023/04/01 05:41:30;;;;;;;0.30;0.30;;;;;;;19.08;47.05;99051.41;5123790;27;20491;-47
2023/04/01 05:43:55;;;;;;;0.20;0.20;;;;;;;19.08;46.95;99049.44;5114439;27;20122;-45
2023/04/01 05:46:21;;;;;;;0.20;0.20;;;;;;;19.07;47.02;99053.34;5115238;28;20043;-46
2023/04/01 05:48:47;;;;;;;0.20;0.20;;;;;;;19.08;46.83;99056.91;5106596;27;20440;-44
2023/04/01 05:51:14;;;;;;;0.20;0.20;;;;;;;19.08;47.12;99060.50;5132524;27;20478;-46
2023/04/01 05:53:40;;;;;;;0.20;0.20;;;;;;;19.07;47.14;99058.88;5116729;27;20483;-44
2023/04/01 05:56:09;;;;;;;0.20;0.20;;;;;;;19.07;47.05;99056.13;5135362;27;20046;-45
2023/04/01 05:58:35;;;;;;;0.20;0.20;;;;;;;19.07;47.16;99063.59;5135226;27;20426;-46
2023/04/01 06:01:03;;;;;;;0.20;0.20;;;;;;;19.08;46.95;99065.19;5108863;28;20051;-45
2023/04/01 06:03:39;;;;;;;0.20;0.20;;;;;;;19.06;46.79;99065.53;5097277;28;20137;-44
2023/04/01 06:06:09;;;;;;;0.20;0.20;;;;;;;19.07;47.09;99060.81;5114792;28;20047;-46
2023/04/01 06:08:34;;;;;;;0.20;0.20;;;;;;;19.07;46.83;99071.84;5116425;27;20047;-45
2023/04/01 06:11:13;;;;;;;0.20;0.20;;;;;;;19.07;46.77;99074.63;5117837;27;20053;-46
2023/04/01 06:13:53;;;;;;;0.30;0.30;;;;;;;19.07;47.06;99071.84;5117679;27;20042;-45
2023/04/01 06:16:30;;;;;;;0.20;0.20;;;;;;;19.06;46.89;99076.56;5118192;28;20046;-46
2023/04/01 06:19:02;;;;;;;0.20;0.20;;;;;;;19.06;47.14;99079.34;5134350;27;20490;-45
2023/04/01 06:21:52;;;;;;;0.20;0.20;;;;;;;19.05;47.05;99075.75;5138086;27;20043;-47
2023/04/01 06:27:28;;;;;;;0.30;0.30;;;;;;;19.05;46.88;99073.00;5174844;27;20128;-46
2023/04/01 06:30:01;;;;;;;0.25;0.25;;;;;;;19.05;46.98;99080.47;5138206;27;20043;-44
2023/04/01 06:32:43;;;;;;;0.20;0.20;;;;;;;19.04;47.09;99074.16;5138636;27;20050;-45
2023/04/01 06:35:31;;;;;;;0.20;0.20;;;;;;;19.06;47.02;99082.09;5131994;27;20118;-47
2023/04/01 06:38:12;;;;;;;0.20;0.20;;;;;;;19.05;46.77;99086.78;5132425;27;20064;-44
2023/04/01 06:41:15;;;;;;;0.30;0.30;;;;;;;19.05;46.81;99086.78;5132562;27;20639;-47
2023/04/01 06:43:50;;;;;;;0.20;0.20;;;;;;;19.06;47.11;99090.38;5116936;27;20070;-46
2023/04/01 06:46:55;;;;;;;0.30;0.30;;;;;;;19.04;47.03;99087.09;5132517;27;20047;-46
2023/04/01 06:49:33;;;;;;;0.20;0.20;;;;;;;19.05;47.06;99091.50;5106021;27;20039;-44
2023/04/01 06:52:05;;;;;;;0.20;0.20;;;;;;;19.05;47.10;99092.31;5121800;27;20552;-45
2023/04/01 06:54:33;;;;;;;0.20;0.20;;;;;;;19.04;47.05;99096.22;5100203;27;20047;-45
2023/04/01 06:57:05;;;;;;;0.20;0.20;;;;;;;19.05;47.13;99097.84;5134395;27;20486;-45
2023/04/01 06:59:33;;;;;;;0.20;0.20;;;;;;;19.05;47.17;99105.31;5153741;27;20091;-45
2023/04/01 07:02:03;;;;;;;0.30;0.30;;;;;;;19.05;46.94;99108.06;5103330;27;20498;-46
2023/04/01 07:04:32;;;;;;;0.20;0.20;;;;;;;19.04;46.94;99104.50;5111720;28;20043;-46
2023/04/01 07:07:31;;;;;;;0.30;0.30;;;;;;;19.04;46.81;99101.72;5111893;28;20335;-45
2023/04/01 07:09:59;;;;;;;0.30;0.30;;;;;;;19.04;46.87;99107.25;5096755;28;20085;-47
2023/04/01 07:15:16;;;;;;;0.30;0.30;;;;;;;19.04;47.05;99117.44;5174895;27;20124;-45
2023/04/01 07:17:43;;;;;;;0.20;0.20;;;;;;;19.03;46.82;99108.38;5134688;27;20038;-45
2023/04/01 07:20:20;;;;;;;0.30;0.30;;;;;;;19.04;46.82;99120.22;5153379;27;20043;-45
2023/04/01 07:22:49;;;;;;;0.30;0.30;;;;;;;19.04;46.83;99129.31;5140308;27;20046;-46
2023/04/01 07:25:37;;;;;;;0.30;0.30;;;;;;;19.04;46.96;99120.22;5135040;27;20045;-45
2023/04/01 07:28:06;;;;;;;0.20;0.20;;;;;;;19.05;46.77;99135.66;5120370;27;20051;-45
2023/04/01 07:30:44;;;;;;;0.30;0.30;;;;;;;19.03;46.78;99135.16;5153902;27;20106;-45
2023/04/01 07:33:17;;;;;;;0.20;0.20;;;;;;;19.03;47.09;99135.94;5113790;27;20050;-46
2023/04/01 07:35:47;;;;;;;0.30;0.30;;;;;;;19.03;46.88;99143.41;5131960;27;20042;-45
2023/04/01 07:38:40;;;;;;;0.30;0.30;;;;;;;19.03;47.10;99140.66;5132156;27;20082;-47
2023/04/01 07:41:37;;;;;;;0.20;0.20;;;;;;;19.03;46.91;99152.50;5122121;27;20097;-45
2023/04/01 07:44:13;;;;;;;0.30;0.30;;;;;;;19.04;46.93;99153.31;5108437;28;20050;-46
2023/04/01 07:47:19;;;;;;;0.30;0.30;;;;;;;19.03;47.10;99154.47;5111899;28;20100;-46
2023/04/01 07:50:05;;;;;;;0.20;0.20;;;;;;;19.02;47.09;99159.16;5098809;28;20058;-45
2023/04/01 07:52:44;;;;;;;0.30;0.30;;;;;;;19.03;46.84;99160.78;5119762;27;20578;-44
2023/04/01 07:55:16;;;;;;;0.20;0.20;;;;;;;19.02;46.89;99161.94;5141076;27;20070;-45
2023/04/01 07:58:20;;;;;;;0.30;0.30;;;;;;;19.03;46.98;99169.06;5152881;27;20050;-45
2023/04/01 08:00:53;;;;;;;0.30;0.30;;;;;;;19.03;47.13;99173.78;5129845;27;20065;-45
2023/04/01 08:03:43;;;;;;;0.30;0.30;;;;;;;19.03;47.15;99177.34;5111131;27;20510;-44
2023/04/01 08:06:32;;;;;;;0.30;0.30;;;;;;;19.02;46.85;99181.25;5093670;28;20542;-44
2023/04/01 08:09:25;;;;;;;0.30;0.30;;;;;;;19.03;46.87;99182.84;5078537;28;20748;-46
2023/04/01 08:12:30;;;;;;;0.30;0.30;;;;;;;19.03;47.07;99190.31;5097163;28;20051;-44
2023/04/01 08:15:21;;;;;;;0.30;0.30;;;;;;;19.02;46.96;99188.69;5116001;27;20053;-44
2023/04/01 08:18:13;;;;;;;0.30;0.30;;;;;;;19.02;46.88;99196.97;5117139;27;20039;-45
2023/04/01 08:20:45;;;;;;;0.20;0.20;;;;;;;19.02;46.95;99196.97;5114191;27;20070;-45
2023/04/01 08:23:19;;;;;;;0.28;0.28;;;;;;;19.01;46.91;99198.94;5113291;27;20260;-47
2023/04/01 08:26:05;;;;;;;0.30;0.30;;;;;;;19.01;46.87;99201.69;5121875;27;20054;-44
2023/04/01 08:29:10;;;;;;;0.20;0.20;;;;;;;19.02;46.93;99210.78;5117503;28;20043;-44
2023/04/01 08:31:45;;;;;;;0.22;0.22;;;;;;;19.02;46.97;99222.63;5090823;28;20502;-45
2023/04/01 08:34:18;;;;;;;0.30;0.30;;;;;;;19.02;46.88;99219.06;5117252;28;20482;-45
2023/04/01 08:36:48;;;;;;;0.28;0.28;;;;;;;19.02;46.94;99219.88;5099116;28;20101;-45
2023/04/01 08:39:18;;;;;;;0.20;0.20;;;;;;;19.02;46.78;99221.81;5099895;28;20186;-44
2023/04/01 08:41:57;;;;;;;0.20;0.20;;;;;;;19.01;47.20;99226.53;5099073;28;20100;-45
2023/04/01 08:45:02;;;;;;;0.20;0.20;;;;;;;19.01;46.94;99220.19;5097376;28;20043;-46
2023/04/01 08:47:39;;;;;;;0.20;0.20;;;;;;;19.02;47.17;99227.31;5084499;28;20481;-46
2023/04/01 08:50:30;;;;;;;0.30;0.30;;;;;;;19.02;46.69;99232.84;5079102;28;20085;-47
2023/04/01 08:53:08;;;;;;;0.22;0.22;;;;;;;19.01;47.12;99232.03;5106007;28;20046;-45
2023/04/01 08:55:58;;;;;;;0.20;0.20;;;;;;;19.01;47.31;99236.75;5106720;28;20574;-44
2023/04/01 08:59:01;;;;;;;0.30;0.30;;;;;;;19.02;47.09;99238.38;5116219;28;20050;-47
2023/04/01 09:04:45;;;;;;;0.28;0.28;;;;;;;19.00;47.06;99252.50;5174978;27;20124;-45
2023/04/01 09:07:34;;;;;;;0.30;0.30;;;;;;;19.01;47.04;99256.06;5126297;27;20054;-44
2023/04/01 09:10:29;;;;;;;0.20;0.20;;;;;;;19.01;46.92;99259.63;5138398;27;20579;-46
2023/04/01 09:13:13;;;;;;;0.30;0.30;;;;;;;19.01;47.17;99254.09;5131347;27;20058;-44
2023/04/01 09:15:50;;;;;;;0.30;0.30;;;;;;;19.01;47.03;99264.34;5132819;27;20668;-46
2023/04/01 09:18:46;;;;;;;0.30;0.30;;;;;;;19.01;47.00;99265.13;5132377;27;20133;-45
2023/04/01 09:21:22;;;;;;;0.30;0.30;;;;;;;19.02;47.11;99274.22;5126972;27;20049;-46
2023/04/01 09:24:07;;;;;;;0.30;0.30;;;;;;;19.01;47.26;99269.84;5153008;27;20103;-45
2023/04/01 09:27:13;;;;;;;0.20;0.20;;;;;;;19.00;47.03;99280.06;5152910;27;20522;-46
2023/04/01 09:29:57;;;;;;;0.20;0.20;;;;;;;19.00;47.25;99274.56;5126078;27;20050;-45
2023/04/01 09:32:57;;;;;;;0.20;0.20;;;;;;;19.00;47.16;99282.84;5152769;27;20070;-45
2023/04/01 09:35:30;;;;;;;0.20;0.20;;;;;;;19.00;47.01;99285.59;5137604;27;20136;-44
2023/04/01 09:38:27;;;;;;;0.30;0.30;;;;;;;18.99;46.99;99281.19;5135197;27;20050;-44
2023/04/01 09:44:12;;;;;;;0.20;0.20;;;;;;;19.00;47.08;99295.81;5174222;27;20124;-45
2023/04/01 09:47:06;;;;;;;0.30;0.30;;;;;;;19.01;47.02;99289.16;5135095;27;20095;-45
2023/04/01 09:50:09;;;;;;;0.30;0.30;;;;;;;18.99;47.05;99297.75;5137661;27;20049;-47
2023/04/01 09:52:51;;;;;;;0.28;0.28;;;;;;;18.99;47.23;99294.97;5137531;27;20049;-46
2023/04/01 09:55:57;;;;;;;0.25;0.25;;;;;;;19.01;46.95;99300.19;5137015;27;20050;-45
2023/04/01 09:59:02;;;;;;;0.20;0.20;;;;;;;19.00;47.10;99304.09;5131268;27;20490;-45
2023/04/01 10:01:53;;;;;;;0.20;0.20;;;;;;;18.99;46.90;99303.25;5106851;27;20057;-44
2023/04/01 10:04:59;;;;;;;0.30;0.30;;;;;;;19.00;47.07;99309.63;5130857;27;20043;-45
2023/04/01 10:07:58;;;;;;;0.30;0.30;;;;;;;18.99;47.07;99311.53;5116920;27;20051;-44
2023/04/01 10:11:03;;;;;;;0.25;0.25;;;;;;;19.00;47.17;99317.88;5132303;27;20109;-46
2023/04/01 10:13:51;;;;;;;0.30;0.30;;;;;;;19.00;47.10;99317.88;5125506;27;20085;-44
2023/04/01 10:16:42;;;;;;;0.30;0.30;;;;;;;19.00;47.15;99320.66;5152970;27;20050;-45
2023/04/01 10:19:47;;;;;;;0.30;0.30;;;;;;;19.00;46.94;99328.94;5149356;27;20105;-45
2023/04/01 10:22:41;;;;;;;0.30;0.30;;;;;;;19.00;47.25;99328.94;5128802;27;20049;-45
2023/04/01 10:25:30;;;;;;;0.25;0.25;;;;;;;18.99;47.07;99333.59;5136634;27;20148;-45
2023/04/01 10:28:22;;;;;;;0.20;0.20;;;;;;;18.99;47.15;99341.06;5130527;27;20380;-47
2023/04/01 10:31:19;;;;;;;0.30;0.30;;;;;;;19.00;47.17;99342.72;5121278;27;20395;-47
2023/04/01 10:34:05;;;;;;;0.30;0.30;;;;;;;18.99;47.13;99341.88;5109667;28;20112;-48
2023/04/01 10:36:54;;;;;;;0.30;0.30;;;;;;;19.00;46.89;99340.78;5109951;28;20089;-49
2023/04/01 10:39:39;;;;;;;;;;;;;;;19.00;46.94;99337.19;5110910;28;20088;-47
2023/04/01 10:42:31;;;;;;;0.28;0.28;;;;;;;18.98;47.04;99340.25;5115936;27;20413;-47
2023/04/01 10:45:27;;;;;;;0.30;0.30;;;;;;;18.99;46.97;99352.09;5129517;27;20074;-48
2023/04/01 10:48:33;;;;;;;0.30;0.30;;;;;;;19.00;47.16;99345.47;5130962;27;20058;-47
2023/04/01 10:51:38;;;;;;;0.30;0.30;;;;;;;18.99;47.00;99339.13;5118245;27;20396;-47
2023/04/01 10:56:51;;;;;;;0.40;0.40;;;;;;;18.99;46.94;99350.16;5174982;27;20119;-44
2023/04/01 11:02:28;;;;;;;0.30;0.30;;;;;;;19.02;46.99;99349.53;5173096;27;20878;-45
2023/04/01 11:05:34;;;;;;;0.20;0.20;;;;;;;19.02;46.94;99362.50;5153675;27;20051;-44
2023/04/01 11:08:27;;;;;;;0.20;0.20;;;;;;;19.00;46.92;99356.50;5126782;27;20209;-45
2023/04/01 11:11:13;;;;;;;0.30;0.30;;;;;;;18.99;46.83;99363.94;5139339;27;20050;-46
2023/04/01 11:13:53;;;;;;;0.30;0.30;;;;;;;19.00;46.86;99367.56;5153572;27;20150;-45
2023/04/01 11:16:31;;;;;;;0.30;0.30;;;;;;;18.98;46.95;99370.59;5153273;27;20095;-44
2023/04/01 11:19:09;;;;;;;0.25;0.25;;;;;;;18.99;47.23;99374.97;5137558;27;20067;-44
2023/04/01 11:21:59;;;;;;;0.20;0.20;;;;;;;18.99;46.99;99371.41;5144475;27;20478;-46
2023/04/01 11:24:49;;;;;;;0.20;0.20;;;;;;;18.99;47.21;99377.75;5121027;27;20057;-46
2023/04/01 11:27:54;;;;;;;0.30;0.30;;;;;;;18.98;47.05;99380.84;5138166;27;20129;-44
2023/04/01 11:33:33;;;;;;;0.20;0.20;;;;;;;18.99;47.22;99390.72;5153917;27;20128;-46
2023/04/01 11:36:17;;;;;;;0.20;0.20;;;;;;;18.98;46.92;99392.69;5153701;27;20058;-46
2023/04/01 11:39:23;;;;;;;0.20;0.20;;;;;;;18.98;47.17;99397.38;5153886;27;20118;-46
2023/04/01 11:42:07;;;;;;;0.30;0.30;;;;;;;18.99;46.98;99401.75;5126664;27;20051;-46
2023/04/01 11:44:35;;;;;;;0.20;0.20;;;;;;;18.99;46.88;99401.75;5151592;27;20402;-45
2023/04/01 11:47:33;;;;;;;0.20;0.20;;;;;;;18.98;47.03;99406.47;5153431;27;20502;-46
2023/04/01 11:50:02;;;;;;;;;;;;;;;18.98;46.99;99411.19;5138237;27;20042;-44
2023/04/01 11:53:00;;;;;;;0.30;0.30;;;;;;;18.96;47.15;99414.25;5153540;27;20236;-46
2023/04/01 11:56:05;;;;;;;0.20;0.20;;;;;;;18.97;47.17;99423.34;5139317;27;20099;-44
2023/04/01 11:58:41;;;;;;;0.30;0.30;;;;;;;18.97;47.36;99420.59;5125900;27;20410;-46
2023/04/01 12:04:10;;;;;;;0.30;0.30;;;;;;;18.98;47.00;99422.22;5159324;27;20580;-46
2023/04/01 12:06:46;;;;;;;0.30;0.30;;;;;;;18.98;47.00;99428.53;5131361;27;20055;-45
2023/04/01 12:12:27;;;;;;;0.30;0.30;;;;;;;18.97;47.16;99428.88;5158296;27;20258;-46
2023/04/01 12:15:08;;;;;;;0.20;0.20;;;;;;;18.99;46.94;99437.63;5153069;27;20130;-45
2023/04/01 12:17:56;;;;;;;0.30;0.30;;;;;;;18.98;47.30;99436.00;5149156;27;20047;-44
2023/04/01 12:20:30;;;;;;;0.20;0.20;;;;;;;18.97;47.06;99437.16;5114903;27;20747;-44
2023/04/01 12:23:22;;;;;;;0.20;0.20;;;;;;;18.98;46.99;99447.84;5152998;27;20103;-45
2023/04/01 12:28:40;;;;;;;0.20;0.20;;;;;;;19.00;47.21;99453.88;5173374;27;20360;-45
2023/04/01 12:34:00;;;;;;;0.30;0.30;;;;;;;18.99;47.14;99456.94;5175006;27;20352;-44
2023/04/01 12:36:53;;;;;;;0.30;0.30;;;;;;;18.99;46.90;99468.78;5153062;27;20090;-45
2023/04/01 12:42:14;;;;;;;0.30;0.30;;;;;;;18.97;47.22;99471.06;5174084;27;20115;-46
2023/04/01 12:45:01;;;;;;;0.30;0.30;;;;;;;18.97;46.88;99479.34;5152900;27;20038;-45
2023/04/01 12:48:07;;;;;;;0.30;0.30;;;;;;;18.97;47.09;99482.09;5152777;27;20074;-45
2023/04/01 12:51:12;;;;;;;0.30;0.30;;;;;;;18.97;47.16;99479.34;5140091;27;20054;-46
2023/04/01 12:54:02;;;;;;;0.30;0.30;;;;;;;18.98;47.20;99480.97;5126148;27;20442;-44
2023/04/01 13:00:08;;;;;;;0.30;0.30;;;;;;;18.97;47.30;99487.63;5174820;27;20115;-45